• Join FlightAware (Why Join?)
  • Login
  • US Flag 
04:16PM EDT


 

Airport Tracker/Info


-or-


 

Live Flight TrackerFlight Track Log ✈ UAL4843 ✈ 11-Apr-2013 ✈ KBDL - KEWR

Flight Track Log - Related Links

Times and Time Zones

All times are in EDT time to prevent confusion due to time zone crossing. See the UAL4843 flight status page for this flight to view local times or setup timezone preferences in your user account.

Time Position Orientation Groundspeed Altitude Reporting Facility
EDT Latitude Longitude Course Direction KTS MPH feet Rate Location/Type
10:59AM 41.9436 -72.6800 114° Southeast 123 142 600  Level Boston Center
11:00AM 41.9314 -72.6439 114° Southeast 159 183 1,900 1,260 Climbing Boston Center
11:01AM 41.8833 -72.6408 177° South 185 213 3,200 1,380 Climbing Boston Center
11:02AM 41.8375 -72.6825 214° Southwest 187 215 4,800 1,380 Climbing Boston Center
11:03AM 41.7997 -72.7214 218° Southwest 173 199 6,100 600 Climbing Boston Center
11:04AM 41.7475 -72.7683 214° Southwest 224 258 6,000 -60 Descending Boston Center
11:06AM 41.6895 -72.8471 225° Southwest  Level Estimated
11:07AM 41.6167 -72.8833 225° Southwest 235 270 5,900  Level New York TRACON
11:08AM 41.5667 -72.9333 217° Southwest 229 264 5,900  Level New York TRACON
11:09AM 41.5167 -72.9667 207° Southwest 229 264 5,900  Level New York TRACON
11:10AM 41.4667 -73.0333 225° Southwest 226 260 5,900  Level New York TRACON
11:11AM 41.4500 -73.1167 255° West 213 245 5,900  Level New York TRACON
11:13AM 41.4000 -73.2500 243° Southwest 213 245 5,900  Level New York TRACON
11:14AM 41.3667 -73.3167 236° Southwest 211 243 5,900  Level New York TRACON
11:15AM 41.3500 -73.4000 255° West 211 243 5,900  Level New York TRACON
11:16AM 41.3167 -73.4667 236° Southwest 213 245 5,900 -180 Level New York TRACON
11:17AM 41.3000 -73.5333 252° West 222 255 5,600 -480 Descending New York TRACON
11:18AM 41.2833 -73.6167 255° West 229 264 5,000 -360 Descending New York TRACON
11:19AM 41.2667 -73.6833 252° West 220 253 5,000  Level New York TRACON
11:20AM 41.2667 -73.7833 270° West 220 253 5,000  Level New York TRACON
11:21AM 41.2500 -73.8500 252° West 219 252 5,000  Level New York TRACON
11:22AM 41.2500 -73.9333 270° West 219 252 5,000  Level New York TRACON
11:23AM 41.2333 -74.0167 255° West 217 250 5,000  Level New York TRACON
11:24AM 41.2333 -74.1000 270° West 217 250 5,000  Level New York TRACON
11:25AM 41.2333 -74.1667 270° West 216 249 5,000  Level New York TRACON
11:26AM 41.2167 -74.2500 255° West 220 253 5,000  Level New York TRACON
11:27AM 41.2167 -74.3333 270° West 222 255 5,000  Level New York TRACON
11:28AM 41.1833 -74.4000 236° Southwest 218 251 5,000  Level New York TRACON
11:29AM 41.1500 -74.4667 236° Southwest 224 258 5,000  Level New York TRACON
11:30AM 41.1000 -74.5167 217° Southwest 224 258 5,000  Level New York TRACON
11:31AM 41.0500 -74.5667 217° Southwest 244 281 5,000  Level New York TRACON
11:32AM 41.0000 -74.4833 128° Southeast 269 310 5,000  Level New York TRACON
11:33AM 40.9500 -74.4667 166° South 249 287 5,000  Level New York TRACON
11:34AM 40.9000 -74.5333 225° Southwest 219 252 5,000  Level New York TRACON
11:35AM 40.8667 -74.5833 229° Southwest 234 269 5,000  Level New York TRACON
11:36AM 40.8000 -74.5667 169° South 244 281 5,000  Level New York TRACON
11:38AM 40.6667 -74.5333 169° South 246 283 5,000  Level New York TRACON
11:39AM 40.6000 -74.5167 169° South 247 284 5,000 -360 Level New York TRACON
11:41AM 40.4833 -74.4333 151° Southeast 249 287 4,000 -420 Descending New York TRACON
11:42AM 40.4500 -74.3667 123° Southeast 208 239 3,900 -540 Descending New York TRACON
11:43AM 40.4833 -74.3000 57° Northeast 199 229 3,000 -540 Descending New York TRACON
11:44AM 40.5167 -74.2500 49° Northeast 198 228 2,900 -480 Descending New York TRACON
11:45AM 40.5500 -74.2500 360° North 162 186 2,200 -480 Descending New York TRACON
11:46AM 40.6000 -74.2333 14° North 114 131 2,000 -420 Descending New York TRACON
11:47AM 40.6167 -74.2167 37° Northeast 125 144 1,400 -720 Descending New York TRACON
11:48AM 40.6500 -74.2000 21° North 132 152 700 -720 Descending New York TRACON
11:50AM 40.6833 -74.1667 16° North  Level FlightAware Approximate
11:57AM 40.6925 -74.1687 16° North  Level Estimated